Main page
METAR-TAF:

METAR-TAF

Airports :

Bobo Dioulasso Airport

Bobo-Dioulasso, Burkina Faso

latitude: 11-10N, longitude: 004-19W, elevation: 460 m

Current weather observation

The report was made 46 minutes ago, at 17:00 UTC
Wind 5 kt from the South/Southwest
Temperature 33°C
Humidity 49%
Pressure 1010 hPa
Visibility 10 km or more
Few clouds at a height of 1600 ft
Few clouds at a height of 3300 ft, Cumulonimbus.
thunderstorm

METAR: DFOO 211700Z 20005KT 9999 TS FEW016 FEW033CB 33/21 Q1010

Time: 17:46 (17:46 UTC)

Forecast

The report was made 46 minutes ago, at 17:00 UTC
Forecast valid from 21 at 18 UTC to 22 at 18 UTC
Wind 8 kt from the South/Southwest
Visibility 10 km or more
Few clouds at a height of 1600 ft
Temporary
from 21 at 18 UTC to 22 at 02 UTC
Visibility: 4000 m
Scattered clouds at a height of 1600 ft
Few clouds at a height of 3600 ft, Cumulonimbus.
thunderstorm, rain

TAF: DFOO 211700Z 2118/2218 20008KT 9999 FEW016 TEMPO 2118/2202 4000 TSRA SCT016 FEW036CB

Weather observations and forecasts of more than 4000 airports (METAR and TAF reports).

The available stations are represented by yellow and red dots on the map.

Hover mouse over dot to see the name of the station.

Then click to see weather observations and forecasts.

To change the map : click on the green buttons with a black cross to zoom in, on the green button with a dash to zoom out, or on the green arrows for adjacent maps.


METAR-TAF: